Arviat, Canada
Current Conditions -  °F | °C
As of 6:42 AM on Thursday 23 Oct 2014 (Local Time) from CYEK Reporting Station
Light Rain Light Rain  
Wind Chill: 22°   Ceiling: 700
Heat Index: 32°   Visibility: 5mi
Dew Point: 32°   Wind: 15mph
Humidity: 100%   Direction: 60°ENE
Pressure: 30.07"   Gusts: NA
Location:  61.12°N, 94.05°W
Report Text: CYEK 231142Z AUTO 06013KT 5SM -RA BR BKN007 BKN014 BKN019 00/00 A3007 RMK PRESRR SLP183
Loading
Personal Weather Stations






























Interactive Weather Map
Tropical Storm Tracking
New forecast layout! Learn more

10-Day Weather Forecast

Advertisements
Track Severe Weather on mobile